Time;durP1;ratioP1;P1;durP2;ratioP2;P2;SDS_P1;SDS_P2;PMS_P1;PMS_P2;Temp;Humidity;BMP_temperature;BMP_pressure;BME280_temperature;BME280_humidity;BME280_pressure;Samples;Min_cycle;Max_cycle;Signal;HPM_P1;HPM_P2
2022/10/16 00:02:18;;;;;;;11.18;8.32;;;;;;;21.49;44.52;95465.16;5023544;28;20037;-68
2022/10/16 00:04:43;;;;;;;11.13;8.75;;;;;;;21.85;44.54;95524.16;5022502;28;20041;-68
2022/10/16 00:07:09;;;;;;;9.73;8.27;;;;;;;21.51;44.54;95471.59;5022733;28;20188;-69
2022/10/16 00:09:34;;;;;;;10.45;8.30;;;;;;;22.12;44.52;95574.00;5016477;28;20038;-68
2022/10/16 00:11:59;;;;;;;11.40;8.90;;;;;;;21.90;44.77;95547.91;5005913;28;20805;-68
2022/10/16 00:14:25;;;;;;;10.90;8.25;;;;;;;22.00;44.67;95561.59;5023149;28;20405;-68
2022/10/16 00:16:50;;;;;;;11.43;8.07;;;;;;;22.10;44.84;95570.28;5023066;28;20508;-68
2022/10/16 00:19:16;;;;;;;10.98;8.30;;;;;;;21.07;44.61;95424.38;5022062;28;20045;-68
2022/10/16 00:21:42;;;;;;;9.95;7.80;;;;;;;21.33;44.75;95522.84;5021493;28;20504;-66
2022/10/16 00:24:10;;;;;;;10.38;7.88;;;;;;;21.88;44.94;95561.25;5022617;28;20049;-67
2022/10/16 00:26:37;;;;;;;11.48;8.18;;;;;;;20.09;44.38;95328.63;5022932;28;20032;-67
2022/10/16 00:29:02;;;;;;;9.98;7.78;;;;;;;21.63;44.77;95518.63;5001655;28;20052;-67
2022/10/16 00:31:28;;;;;;;10.35;8.10;;;;;;;21.93;44.87;95572.91;5017791;28;20041;-67
2022/10/16 00:33:53;;;;;;;12.23;9.02;;;;;;;21.29;44.75;95478.13;5023141;28;20112;-67
2022/10/16 00:36:20;;;;;;;12.38;8.70;;;;;;;21.82;44.86;95557.75;5021421;28;20068;-68
2022/10/16 00:38:46;;;;;;;10.68;7.55;;;;;;;21.34;44.80;95486.28;5022500;28;20049;-68
2022/10/16 00:41:13;;;;;;;10.93;8.30;;;;;;;20.85;44.79;95422.75;5023140;28;20025;-68
2022/10/16 00:43:41;;;;;;;10.80;8.57;;;;;;;21.21;44.87;95472.38;5022744;28;20025;-68
2022/10/16 00:46:25;;;;;;;10.55;7.63;;;;;;;21.99;45.00;95583.81;5018608;28;20041;-68
2022/10/16 00:48:57;;;;;;;10.60;8.13;;;;;;;21.98;45.00;95588.50;5005042;28;20629;-68
2022/10/16 00:51:27;;;;;;;11.63;8.07;;;;;;;21.17;44.86;95471.84;5021158;28;20040;-68
2022/10/16 00:53:52;;;;;;;;;;;;;;;21.96;45.02;95574.66;5022233;28;20412;-68
2022/10/16 00:56:17;;;;;;;10.73;7.80;;;;;;;21.40;44.87;95506.06;5027264;28;19916;-68
2022/10/16 00:58:43;;;;;;;10.48;7.38;;;;;;;21.40;45.02;95495.22;5025921;28;20290;-68
2022/10/16 01:01:08;;;;;;;10.00;7.60;;;;;;;21.19;45.04;95460.50;4988791;28;20061;-67
2022/10/16 01:03:35;;;;;;;11.00;7.72;;;;;;;21.54;44.96;95526.97;4989943;28;20042;-67
2022/10/16 01:06:15;;;;;;;10.15;7.78;;;;;;;21.92;45.19;95598.59;5022016;28;20045;-68
2022/10/16 01:08:43;;;;;;;9.20;7.38;;;;;;;21.92;45.11;95587.00;5025886;28;20038;-68
2022/10/16 01:11:21;;;;;;;10.50;7.88;;;;;;;21.92;45.04;95591.69;5026576;28;20037;-68
2022/10/16 01:13:50;;;;;;;9.23;7.30;;;;;;;21.70;45.23;95567.06;5008375;28;20443;-68
2022/10/16 01:16:38;;;;;;;9.85;7.03;;;;;;;21.61;45.19;95553.69;4992590;28;20049;-68
2022/10/16 01:19:04;;;;;;;10.88;7.65;;;;;;;21.89;45.10;95595.38;5022011;28;20604;-69
2022/10/16 01:21:39;;;;;;;10.18;7.65;;;;;;;21.71;45.38;95563.13;5023527;28;20152;-68
2022/10/16 01:24:25;;;;;;;9.55;7.38;;;;;;;21.86;45.14;95580.03;5008467;28;20057;-66
2022/10/16 01:27:28;;;;;;;9.95;7.20;;;;;;;21.86;45.21;95582.75;5022135;28;20137;-66
2022/10/16 01:30:13;;;;;;;9.95;7.95;;;;;;;21.72;45.21;95559.16;5017114;28;20052;-68
2022/10/16 01:32:47;;;;;;;9.02;7.05;;;;;;;21.84;45.08;95580.53;5011535;28;20069;-67
2022/10/16 01:35:25;;;;;;;10.38;7.22;;;;;;;21.83;45.45;95575.56;5026086;28;20069;-69
2022/10/16 01:38:03;;;;;;;8.63;7.00;;;;;;;21.83;45.15;95575.56;5007802;28;20044;-68
2022/10/16 01:40:29;;;;;;;8.85;7.10;;;;;;;21.83;45.19;95578.28;5007765;28;20092;-68
2022/10/16 01:43:08;;;;;;;9.27;7.00;;;;;;;21.71;45.31;95563.13;5003514;28;20045;-67
2022/10/16 01:45:33;;;;;;;9.67;7.13;;;;;;;21.80;45.24;95571.84;5009031;28;20095;-68
2022/10/16 01:48:00;;;;;;;9.32;7.18;;;;;;;21.80;45.27;95581.97;5007724;28;20037;-68
2022/10/16 01:50:25;;;;;;;9.27;6.72;;;;;;;21.80;45.30;95592.84;5012734;28;20526;-67
2022/10/16 01:52:51;;;;;;;9.52;7.28;;;;;;;21.79;45.22;95591.34;5007642;28;20033;-67
2022/10/16 01:55:29;;;;;;;8.50;6.60;;;;;;;21.76;45.25;95593.06;4991743;28;20053;-65
2022/10/16 01:57:55;;;;;;;9.52;7.70;;;;;;;21.67;45.26;95573.47;5018699;28;20030;-66
2022/10/16 02:00:20;;;;;;;9.02;7.05;;;;;;;21.68;45.40;95574.97;5007558;28;20501;-66
2022/10/16 02:02:47;;;;;;;9.35;7.00;;;;;;;21.76;45.20;95597.75;5008413;28;20526;-66
2022/10/16 02:05:12;;;;;;;8.02;6.35;;;;;;;21.75;45.35;95597.03;5008562;28;20029;-68
2022/10/16 02:07:38;;;;;;;8.75;6.72;;;;;;;21.63;45.37;95583.84;5025065;28;20046;-67
2022/10/16 02:10:04;;;;;;;7.47;6.35;;;;;;;21.76;45.45;95592.31;5022594;28;20049;-66
2022/10/16 02:12:33;;;;;;;8.88;6.80;;;;;;;21.75;45.19;95598.97;5023863;28;20049;-67
2022/10/16 02:14:58;;;;;;;8.20;6.60;;;;;;;21.73;45.19;95606.88;4981492;28;20127;-68
2022/10/16 02:17:24;;;;;;;10.20;7.15;;;;;;;21.72;45.24;95598.00;5025781;28;20024;-66
2022/10/16 02:19:50;;;;;;;8.30;6.35;;;;;;;21.72;45.23;95608.88;5024642;28;20452;-68
2022/10/16 02:22:30;;;;;;;8.57;7.00;;;;;;;21.72;45.26;95608.09;5023538;28;20038;-66
2022/10/16 02:25:08;;;;;;;7.80;7.00;;;;;;;21.71;45.22;95620.22;5004437;28;20034;-68
2022/10/16 02:27:45;;;;;;;8.52;6.55;;;;;;;21.70;45.65;95621.44;5006564;28;20488;-67
2022/10/16 02:30:32;;;;;;;8.52;6.65;;;;;;;21.70;45.28;95624.16;5000965;28;20053;-67
2022/10/16 02:32:58;;;;;;;8.00;6.28;;;;;;;21.70;45.24;95622.19;5000311;28;20041;-68
2022/10/16 02:35:24;;;;;;;7.63;5.97;;;;;;;21.70;45.26;95610.56;5007576;28;20107;-67
2022/10/16 02:37:49;;;;;;;9.13;6.30;;;;;;;21.68;45.34;95613.03;5024763;28;20049;-67
2022/10/16 02:40:15;;;;;;;8.38;6.65;;;;;;;21.44;45.34;95582.69;5007022;28;20622;-68
2022/10/16 02:42:41;;;;;;;9.07;6.50;;;;;;;21.68;45.47;95618.47;5006683;28;20044;-68
2022/10/16 02:45:07;;;;;;;9.20;6.53;;;;;;;21.68;45.43;95623.91;5024979;28;20048;-68
2022/10/16 02:47:33;;;;;;;7.88;6.15;;;;;;;21.65;45.38;95619.44;5019158;28;20026;-67
2022/10/16 02:49:58;;;;;;;8.15;6.22;;;;;;;21.66;45.23;95627.09;5017423;28;20060;-67
2022/10/16 02:52:24;;;;;;;7.53;6.20;;;;;;;21.65;45.25;95635.75;5024207;28;20088;-67
2022/10/16 02:54:49;;;;;;;8.00;6.20;;;;;;;21.40;45.39;95597.72;5024779;28;20429;-67
2022/10/16 02:57:15;;;;;;;7.20;5.75;;;;;;;21.65;45.35;95630.31;5023911;28;20095;-68
2022/10/16 02:59:40;;;;;;;7.90;6.20;;;;;;;21.65;45.26;95649.34;5000530;28;20062;-68
2022/10/16 03:02:06;;;;;;;7.72;6.20;;;;;;;21.63;45.47;95638.94;5021187;28;20027;-68
2022/10/16 03:04:31;;;;;;;7.90;6.20;;;;;;;21.64;45.42;95643.16;5023168;28;20041;-68
2022/10/16 03:06:57;;;;;;;7.47;5.80;;;;;;;21.63;45.51;95638.22;5023880;28;20067;-69
2022/10/16 03:09:22;;;;;;;8.10;5.63;;;;;;;21.62;45.44;95640.16;5023969;28;20064;-69
2022/10/16 03:11:48;;;;;;;7.18;5.82;;;;;;;21.60;45.40;95639.16;5023269;28;20037;-68
2022/10/16 03:14:13;;;;;;;6.65;5.43;;;;;;;21.60;45.33;95641.88;5024631;28;20037;-67
2022/10/16 03:16:39;;;;;;;7.82;5.63;;;;;;;21.17;45.38;95585.19;5023773;28;20311;-68
2022/10/16 03:19:04;;;;;;;7.15;5.88;;;;;;;21.60;45.35;95641.88;5021853;28;20126;-67
2022/10/16 03:21:30;;;;;;;7.47;6.05;;;;;;;21.59;45.41;95648.53;5019863;28;20045;-68
2022/10/16 03:23:55;;;;;;;7.45;5.72;;;;;;;21.59;45.41;95643.09;5022396;28;20037;-69
2022/10/16 03:26:20;;;;;;;7.70;6.18;;;;;;;21.58;45.24;95649.75;5023546;28;20032;-68
2022/10/16 03:28:46;;;;;;;7.90;5.70;;;;;;;21.21;45.28;95601.97;5023512;28;20042;-67
2022/10/16 03:31:11;;;;;;;6.47;5.47;;;;;;;21.58;45.31;95649.75;5015807;28;20049;-67
2022/10/16 03:33:37;;;;;;;7.22;5.60;;;;;;;21.56;44.97;95650.25;5022868;28;20099;-67
2022/10/16 03:36:02;;;;;;;7.65;5.65;;;;;;;21.57;45.39;95656.44;5022390;28;20048;-67
2022/10/16 03:38:28;;;;;;;6.85;5.47;;;;;;;21.50;45.43;95646.00;5023595;28;20037;-67
2022/10/16 03:40:53;;;;;;;7.55;5.72;;;;;;;21.36;45.43;95625.09;5022996;28;20038;-66
2022/10/16 03:43:19;;;;;;;6.40;5.25;;;;;;;21.56;45.38;95654.94;5022213;28;20037;-69
2022/10/16 03:45:44;;;;;;;6.53;5.35;;;;;;;21.56;45.36;95654.94;5023601;28;20111;-67
2022/10/16 03:48:10;;;;;;;7.43;5.70;;;;;;;21.55;45.24;95648.00;5023353;28;20026;-69
2022/10/16 03:50:35;;;;;;;7.35;5.55;;;;;;;21.33;45.24;95615.19;5018047;28;20033;-67
2022/10/16 03:53:01;;;;;;;6.72;5.20;;;;;;;21.43;45.41;95636.28;5022787;28;20026;-68
2022/10/16 03:55:26;;;;;;;7.25;5.63;;;;;;;21.35;45.34;95617.44;5022629;28;20049;-68
2022/10/16 03:57:51;;;;;;;6.57;5.20;;;;;;;21.52;45.17;95638.09;5014364;28;20042;-68
2022/10/16 04:00:17;;;;;;;6.70;5.43;;;;;;;21.52;45.19;95643.53;5008875;28;20103;-68
2022/10/16 04:02:42;;;;;;;6.82;5.55;;;;;;;21.05;45.36;95573.47;5036691;28;20029;-68
2022/10/16 04:05:08;;;;;;;6.60;5.47;;;;;;;21.39;45.29;95626.84;5018176;28;20080;-68
2022/10/16 04:07:33;;;;;;;6.38;5.22;;;;;;;21.50;45.43;95635.84;5017174;28;20070;-67
2022/10/16 04:09:59;;;;;;;9.07;5.63;;;;;;;21.49;45.52;95650.69;5023108;28;20162;-67
2022/10/16 04:12:25;;;;;;;6.75;4.88;;;;;;;21.50;45.37;95640.56;5003946;28;20052;-67
2022/10/16 04:14:50;;;;;;;7.75;5.28;;;;;;;21.49;45.41;95647.97;5020802;28;20044;-68
2022/10/16 04:17:16;;;;;;;7.28;5.10;;;;;;;21.34;45.47;95624.81;5013816;28;20743;-68
2022/10/16 04:19:41;;;;;;;6.57;5.07;;;;;;;20.97;45.48;95582.53;5021171;28;20430;-68
2022/10/16 04:22:06;;;;;;;6.15;5.00;;;;;;;21.48;45.34;95653.88;5021180;28;20041;-68
2022/10/16 04:24:32;;;;;;;7.20;5.18;;;;;;;21.47;45.33;95641.53;5021434;28;20042;-68
2022/10/16 04:26:57;;;;;;;5.82;5.00;;;;;;;21.47;45.42;95661.28;5022001;28;20412;-68
2022/10/16 04:29:23;;;;;;;5.90;5.10;;;;;;;21.47;45.48;95657.81;5022057;28;20539;-68
2022/10/16 04:31:48;;;;;;;6.00;5.10;;;;;;;21.47;45.38;95652.38;5021945;28;20508;-68
2022/10/16 04:34:14;;;;;;;6.25;4.63;;;;;;;21.34;45.17;95637.66;5023442;28;20060;-68
2022/10/16 04:36:39;;;;;;;5.75;4.72;;;;;;;21.46;45.33;95661.75;5022080;28;20068;-68
2022/10/16 04:39:05;;;;;;;6.15;5.00;;;;;;;21.44;45.35;95654.06;5021521;28;20037;-69
2022/10/16 04:41:30;;;;;;;5.95;4.70;;;;;;;21.45;45.39;95660.25;5022475;28;20168;-68
2022/10/16 04:43:56;;;;;;;6.65;4.93;;;;;;;21.46;45.36;95661.75;5022703;28;20030;-68
2022/10/16 04:46:21;;;;;;;5.28;4.78;;;;;;;21.45;45.51;95665.69;5022839;28;20091;-68
2022/10/16 04:48:47;;;;;;;5.90;5.00;;;;;;;20.66;45.13;95551.84;5022708;28;20037;-69
2022/10/16 04:51:12;;;;;;;6.45;4.65;;;;;;;21.35;45.36;95667.06;5019886;28;20025;-68
2022/10/16 04:53:38;;;;;;;6.00;4.60;;;;;;;21.45;45.40;95676.56;5023371;28;20040;-69
2022/10/16 04:56:03;;;;;;;6.32;4.60;;;;;;;21.44;45.37;95675.06;5021000;28;20060;-67
2022/10/16 04:58:29;;;;;;;5.80;4.63;;;;;;;21.44;45.45;95675.06;5035994;28;20048;-67
2022/10/16 05:00:54;;;;;;;5.43;4.60;;;;;;;21.44;45.47;95686.66;5022723;28;20041;-62
2022/10/16 05:03:20;;;;;;;5.40;4.40;;;;;;;20.95;45.39;95622.97;5015102;28;20042;-60
2022/10/16 05:05:45;;;;;;;6.32;4.78;;;;;;;20.61;46.19;95560.63;4990146;28;20045;-63
2022/10/16 05:08:12;;;;;;;6.25;4.90;;;;;;;21.28;46.25;95672.19;5042536;28;20033;-63
2022/10/16 05:10:37;;;;;;;6.80;4.28;;;;;;;21.51;46.28;95696.41;5020308;28;20053;-64
2022/10/16 05:13:03;;;;;;;6.05;4.30;;;;;;;21.00;46.07;95614.88;5022932;28;20064;-62
2022/10/16 05:15:28;;;;;;;6.43;4.90;;;;;;;20.28;46.39;95581.22;5024504;28;20030;-66
2022/10/16 05:17:54;;;;;;;5.85;4.35;;;;;;;20.76;46.02;95593.88;5023044;28;20025;-61
2022/10/16 05:20:19;;;;;;;5.93;4.78;;;;;;;21.52;46.06;95703.31;5021871;28;20042;-67
2022/10/16 05:22:45;;;;;;;5.30;4.43;;;;;;;21.54;45.93;95717.19;5017354;28;20617;-68
2022/10/16 05:25:10;;;;;;;6.65;4.38;;;;;;;21.59;46.05;95702.91;5011896;28;20525;-67
2022/10/16 05:27:36;;;;;;;5.30;4.35;;;;;;;21.33;46.13;95664.09;5017433;28;20041;-68
2022/10/16 05:30:01;;;;;;;6.05;4.07;;;;;;;21.61;46.13;95700.44;5020589;28;20061;-66
2022/10/16 05:32:27;;;;;;;6.38;4.47;;;;;;;20.69;46.09;95572.63;5031859;28;20033;-68
2022/10/16 05:34:52;;;;;;;5.60;4.03;;;;;;;21.32;45.88;95662.59;5031669;28;20048;-67
2022/10/16 05:37:18;;;;;;;5.43;4.18;;;;;;;21.24;45.95;95645.25;5041811;28;20033;-65
2022/10/16 05:39:43;;;;;;;5.28;4.40;;;;;;;21.70;45.59;95708.41;5041447;28;20213;-67
2022/10/16 05:42:09;;;;;;;4.90;4.00;;;;;;;21.63;45.97;95692.56;5014768;28;20036;-67
2022/10/16 05:44:34;;;;;;;5.72;4.43;;;;;;;21.77;46.22;95708.00;5026252;28;20030;-65
2022/10/16 05:47:00;;;;;;;4.60;4.00;;;;;;;21.36;45.87;95635.97;5025490;28;20057;-64
2022/10/16 05:49:25;;;;;;;7.65;4.78;;;;;;;20.83;45.70;95566.34;5025676;28;20041;-66
2022/10/16 05:51:51;;;;;;;4.63;4.07;;;;;;;20.98;45.60;95587.47;5011587;28;20061;-68
2022/10/16 05:54:16;;;;;;;5.65;4.35;;;;;;;21.92;45.78;95719.50;5024992;28;20045;-65
2022/10/16 05:56:42;;;;;;;4.85;4.13;;;;;;;21.96;45.64;95721.50;5006584;28;20124;-64
2022/10/16 05:59:07;;;;;;;5.25;3.90;;;;;;;21.39;45.28;95659.47;5025480;28;20542;-64
2022/10/16 06:01:33;;;;;;;4.70;3.75;;;;;;;21.01;45.29;95572.91;5013202;28;20029;-64
2022/10/16 06:03:58;;;;;;;5.88;4.05;;;;;;;22.18;45.47;95738.00;5035622;28;20516;-66
2022/10/16 06:06:26;;;;;;;6.20;3.97;;;;;;;21.99;45.26;95736.84;5024728;28;20551;-68
2022/10/16 06:08:52;;;;;;;4.60;3.80;;;;;;;21.75;45.03;95688.69;5024591;28;20094;-66
2022/10/16 06:11:22;;;;;;;5.55;3.60;;;;;;;21.96;45.03;95693.56;5013195;28;20468;-65
2022/10/16 06:13:51;;;;;;;5.35;4.15;;;;;;;21.66;44.69;95653.53;5043035;28;20419;-66
2022/10/16 06:16:17;;;;;;;4.65;3.60;;;;;;;22.29;44.81;95751.72;5031396;28;20523;-67
2022/10/16 06:18:42;;;;;;;4.85;3.78;;;;;;;22.16;44.94;95698.91;5025967;28;20034;-66
2022/10/16 06:21:09;;;;;;;4.43;3.63;;;;;;;22.00;44.56;95662.22;5026034;28;20710;-64
2022/10/16 06:23:35;;;;;;;6.55;3.70;;;;;;;22.42;44.62;95730.28;5002117;28;20045;-64
2022/10/16 06:26:08;;;;;;;5.22;4.00;;;;;;;22.03;44.70;95672.13;4997442;28;20800;-66
2022/10/16 06:28:33;;;;;;;6.40;3.90;;;;;;;22.29;44.75;95694.56;5020554;28;20413;-64
2022/10/16 06:31:00;;;;;;;5.07;3.60;;;;;;;22.52;44.45;95740.47;5022511;28;20176;-66
2022/10/16 06:33:25;;;;;;;6.95;4.15;;;;;;;22.45;44.08;95707.50;5026313;28;20487;-65
2022/10/16 06:35:51;;;;;;;4.30;3.80;;;;;;;22.28;44.45;95703.94;5039786;28;20036;-64
2022/10/16 06:38:16;;;;;;;7.80;4.13;;;;;;;22.14;44.06;95661.31;5036026;28;20486;-65
2022/10/16 06:40:42;;;;;;;5.60;3.80;;;;;;;22.63;43.81;95720.72;5038184;28;20674;-63
2022/10/16 06:43:07;;;;;;;4.57;3.50;;;;;;;22.92;43.99;95762.72;5042188;28;20033;-64
2022/10/16 06:45:32;;;;;;;4.93;3.50;;;;;;;22.42;43.43;95681.31;5044568;28;20581;-64
2022/10/16 06:47:58;;;;;;;4.97;3.63;;;;;;;22.88;43.49;95755.28;5037487;28;20562;-64
2022/10/16 06:50:23;;;;;;;5.50;3.97;;;;;;;22.96;43.75;95776.91;5015789;28;20037;-63
2022/10/16 06:52:49;;;;;;;4.30;3.70;;;;;;;23.09;43.53;95787.34;5023510;28;20037;-63
2022/10/16 06:55:15;;;;;;;4.95;3.85;;;;;;;22.78;43.42;95740.38;5006223;28;20041;-66
2022/10/16 06:57:40;;;;;;;4.18;3.45;;;;;;;22.33;43.11;95678.78;5023488;28;20099;-65
2022/10/16 07:00:06;;;;;;;4.75;3.97;;;;;;;23.13;43.29;95788.59;5023783;28;20123;-63
2022/10/16 07:02:31;;;;;;;5.65;4.10;;;;;;;22.52;43.21;95696.91;5016674;28;20052;-63
2022/10/16 07:04:57;;;;;;;4.05;3.63;;;;;;;22.72;43.06;95717.81;5022968;28;20038;-65
2022/10/16 07:07:24;;;;;;;6.43;3.90;;;;;;;22.29;42.96;95653.75;5037526;28;20471;-67
2022/10/16 07:09:50;;;;;;;5.43;3.85;;;;;;;22.93;42.56;95756.09;5024296;28;20056;-67
2022/10/16 07:12:15;;;;;;;4.78;3.67;;;;;;;23.09;42.63;95760.09;5016089;28;20635;-65
2022/10/16 07:14:41;;;;;;;4.53;3.90;;;;;;;22.98;42.25;95743.72;5024191;28;20025;-67
2022/10/16 07:17:06;;;;;;;7.53;4.10;;;;;;;23.47;42.68;95812.06;5022639;28;20048;-67
2022/10/16 07:19:31;;;;;;;4.68;3.85;;;;;;;23.28;42.47;95772.09;5023807;28;20087;-68
2022/10/16 07:21:57;;;;;;;4.43;3.88;;;;;;;23.46;42.67;95800.38;5023589;28;20037;-69
2022/10/16 07:24:22;;;;;;;4.30;3.55;;;;;;;22.44;42.60;95646.16;5023842;28;20033;-66
2022/10/16 07:26:48;;;;;;;4.57;3.35;;;;;;;23.08;42.36;95737.56;5020043;28;20606;-68
2022/10/16 07:29:15;;;;;;;4.43;3.72;;;;;;;22.88;41.87;95702.31;5020015;28;20449;-68
2022/10/16 07:31:40;;;;;;;5.57;4.38;;;;;;;23.16;41.83;95722.25;5023427;28;20042;-68
2022/10/16 07:34:06;;;;;;;4.50;3.65;;;;;;;23.59;41.63;95791.75;5023533;28;20119;-68
2022/10/16 07:36:31;;;;;;;4.72;3.90;;;;;;;23.60;42.10;95793.25;5021594;28;20033;-69
2022/10/16 07:38:57;;;;;;;4.60;3.63;;;;;;;23.64;41.45;95789.06;5023866;28;20032;-65
2022/10/16 07:41:22;;;;;;;4.50;3.65;;;;;;;23.66;41.44;95789.34;5022628;28;20510;-66
2022/10/16 07:43:49;;;;;;;5.47;4.10;;;;;;;23.73;41.92;95799.00;5023495;28;20113;-65
2022/10/16 07:46:14;;;;;;;5.10;3.60;;;;;;;23.16;41.79;95716.78;5022524;28;20128;-66
2022/10/16 07:48:40;;;;;;;5.78;3.80;;;;;;;23.68;41.75;95799.75;5005836;28;20160;-65
2022/10/16 07:51:06;;;;;;;5.28;3.67;;;;;;;23.76;41.46;95806.94;5022093;28;20041;-62
2022/10/16 07:53:32;;;;;;;4.40;3.60;;;;;;;23.22;41.59;95731.19;5024123;28;20467;-69
2022/10/16 07:56:06;;;;;;;5.15;3.92;;;;;;;23.79;41.60;95816.13;5023928;28;20053;-70
2022/10/16 07:58:32;;;;;;;5.00;3.95;;;;;;;23.48;42.01;95802.63;5034191;28;20042;-68
2022/10/16 08:00:58;;;;;;;5.43;4.00;;;;;;;23.58;41.38;95806.63;5023083;28;20046;-66
2022/10/16 08:03:24;;;;;;;4.93;3.88;;;;;;;23.71;41.62;95820.59;5032059;28;20807;-66
2022/10/16 08:05:49;;;;;;;4.97;3.58;;;;;;;23.18;41.44;95763.34;5037847;28;20040;-64
2022/10/16 08:08:16;;;;;;;5.30;3.67;;;;;;;22.79;41.70;95703.75;5025169;28;20021;-66
2022/10/16 08:10:41;;;;;;;4.53;3.72;;;;;;;22.79;41.76;95709.19;5041035;28;20091;-65
2022/10/16 08:13:07;;;;;;;4.70;3.70;;;;;;;23.42;41.93;95778.09;5028685;28;20038;-65
2022/10/16 08:15:32;;;;;;;5.43;3.90;;;;;;;23.43;41.45;95785.00;5035867;28;20500;-66
2022/10/16 08:17:59;;;;;;;4.75;3.88;;;;;;;23.47;41.54;95795.69;5038918;28;20117;-67
2022/10/16 08:20:25;;;;;;;5.50;3.53;;;;;;;23.23;41.91;95765.38;5040822;28;20029;-66
2022/10/16 08:22:51;;;;;;;6.30;3.95;;;;;;;22.95;42.36;95748.16;5024642;28;20544;-65
2022/10/16 08:25:16;;;;;;;5.43;3.88;;;;;;;23.52;41.78;95803.13;5023372;28;20078;-66
2022/10/16 08:27:42;;;;;;;5.13;3.70;;;;;;;23.54;41.62;95808.84;5020325;28;20049;-67
2022/10/16 08:30:08;;;;;;;5.32;4.07;;;;;;;23.55;41.51;95819.25;5023374;28;20041;-66
2022/10/16 08:32:33;;;;;;;4.60;3.65;;;;;;;23.41;41.50;95775.84;5020675;28;20033;-67
2022/10/16 08:34:59;;;;;;;4.18;3.65;;;;;;;23.60;41.40;95809.59;5023000;28;20147;-66
2022/10/16 08:37:24;;;;;;;5.05;3.58;;;;;;;23.42;41.87;95777.31;5022322;28;20041;-67
2022/10/16 08:39:50;;;;;;;4.13;3.67;;;;;;;22.94;41.52;95700.38;5022753;28;20045;-66
2022/10/16 08:42:54;;;;;;;5.50;3.88;;;;;;;23.52;41.92;95803.88;5020105;28;20136;-67
2022/10/16 08:45:34;;;;;;;5.47;3.67;;;;;;;23.56;41.77;95798.94;5032380;28;20110;-67
2022/10/16 08:48:24;;;;;;;5.50;3.63;;;;;;;23.80;41.81;95806.72;5022551;28;20109;-65
2022/10/16 08:50:50;;;;;;;4.37;3.60;;;;;;;23.55;40.50;95769.44;5031429;28;20048;-65
2022/10/16 08:53:25;;;;;;;4.70;3.58;;;;;;;23.15;40.09;95720.78;4989537;28;20061;-64
2022/10/16 08:55:51;;;;;;;6.53;3.85;;;;;;;23.64;40.69;95813.59;5021128;28;20188;-64
2022/10/16 08:58:19;;;;;;;6.55;3.90;;;;;;;23.09;40.50;95716.53;5000170;28;20352;-67
2022/10/16 09:00:53;;;;;;;4.63;3.75;;;;;;;23.74;40.27;95803.25;5005152;28;20038;-66
2022/10/16 09:03:28;;;;;;;7.45;4.10;;;;;;;23.70;39.69;95819.81;5029983;28;20046;-67
2022/10/16 09:06:16;;;;;;;4.63;3.65;;;;;;;23.73;39.20;95812.66;5022352;28;20024;-65
2022/10/16 09:09:04;;;;;;;4.88;3.38;;;;;;;23.35;39.62;95764.19;5014640;28;20041;-65
2022/10/16 09:12:04;;;;;;;5.47;3.42;;;;;;;23.77;39.30;95813.91;5022801;28;20168;-66
2022/10/16 09:15:00;;;;;;;4.13;3.28;;;;;;;23.85;38.75;95803.25;5012225;28;20692;-66
2022/10/16 09:17:34;;;;;;;5.15;3.72;;;;;;;23.70;40.13;95808.19;5025063;28;20225;-68
2022/10/16 09:20:37;;;;;;;5.05;3.60;;;;;;;23.74;40.29;95809.44;5008770;28;20229;-65
2022/10/16 09:23:41;;;;;;;5.43;3.40;;;;;;;23.80;39.20;95806.72;5015495;28;20145;-63
2022/10/16 09:26:10;;;;;;;4.40;3.70;;;;;;;23.82;39.25;95798.78;4955948;28;20138;-63
2022/10/16 09:28:36;;;;;;;5.25;3.35;;;;;;;23.81;39.66;95802.75;4964440;28;20047;-64
2022/10/16 09:31:01;;;;;;;4.93;3.63;;;;;;;23.52;39.51;95721.34;5000417;28;20110;-64
2022/10/16 09:33:35;;;;;;;4.85;3.40;;;;;;;23.17;39.13;95671.97;5028140;28;20052;-65
2022/10/16 09:36:00;;;;;;;4.60;3.50;;;;;;;23.95;38.55;95808.72;4991503;28;20571;-64
2022/10/16 09:38:30;;;;;;;6.47;3.53;;;;;;;23.65;38.66;95751.66;4988785;28;20137;-67
2022/10/16 09:40:57;;;;;;;4.78;3.33;;;;;;;24.21;38.98;95786.69;4977336;28;20037;-66
2022/10/16 09:43:30;;;;;;;4.40;3.45;;;;;;;23.78;38.93;95721.91;4994348;28;20075;-67
2022/10/16 09:46:29;;;;;;;4.80;3.50;;;;;;;24.14;38.17;95749.72;5022791;28;20033;-66
2022/10/16 09:48:57;;;;;;;4.63;2.97;;;;;;;24.18;38.16;95755.66;5029323;28;20132;-67
2022/10/16 09:51:24;;;;;;;4.10;3.30;;;;;;;24.55;38.58;95788.94;5027590;28;20036;-65
2022/10/16 09:53:54;;;;;;;5.20;3.33;;;;;;;24.15;38.24;95734.81;5045099;28;20124;-71
2022/10/16 09:56:32;;;;;;;4.75;3.20;;;;;;;24.28;38.23;95742.50;5019521;28;20042;-66
2022/10/16 09:58:58;;;;;;;5.18;3.30;;;;;;;24.31;38.14;95750.44;5038530;28;20025;-64
2022/10/16 10:01:30;;;;;;;4.93;3.17;;;;;;;24.33;38.61;95753.44;5033644;28;20048;-64
2022/10/16 10:04:00;;;;;;;4.30;3.20;;;;;;;24.27;38.77;95741.75;5026255;28;20550;-68
2022/10/16 10:06:40;;;;;;;4.07;3.30;;;;;;;23.14;38.54;95593.94;5021201;28;20025;-66
2022/10/16 10:09:06;;;;;;;6.05;3.38;;;;;;;24.67;38.41;95790.41;4997911;28;20056;-67
2022/10/16 10:11:42;;;;;;;4.65;3.30;;;;;;;24.69;38.92;95787.91;4988913;28;20044;-65
2022/10/16 10:14:17;;;;;;;3.95;3.17;;;;;;;24.15;38.39;95701.31;4988459;28;20513;-69
2022/10/16 10:16:43;;;;;;;3.65;2.88;;;;;;;24.52;38.30;95724.38;5015653;28;20125;-67
2022/10/16 10:19:17;;;;;;;4.97;3.22;;;;;;;24.61;38.02;95726.84;5032748;28;20041;-66
2022/10/16 10:21:43;;;;;;;5.22;3.40;;;;;;;24.85;38.04;95763.28;5011390;28;20485;-68
2022/10/16 10:24:11;;;;;;;5.05;3.08;;;;;;;24.86;37.77;95759.31;4996149;28;20038;-65
2022/10/16 10:26:37;;;;;;;4.03;3.10;;;;;;;24.68;37.91;95750.91;5004783;28;20038;-67
2022/10/16 10:29:17;;;;;;;5.32;3.13;;;;;;;24.91;38.13;95762.03;5004473;28;20021;-66
2022/10/16 10:31:45;;;;;;;4.55;3.50;;;;;;;24.49;38.04;95681.69;4999969;28;20046;-68
2022/10/16 10:34:52;;;;;;;4.22;3.38;;;;;;;24.74;37.44;95718.84;4996797;28;20046;-67
2022/10/16 10:37:27;;;;;;;4.03;3.20;;;;;;;24.89;38.00;95739.19;4914309;29;20043;-67
2022/10/16 10:39:58;;;;;;;4.15;3.05;;;;;;;24.24;38.20;95628.13;4988841;28;20097;-68
2022/10/16 10:42:57;;;;;;;5.45;3.13;;;;;;;24.64;35.14;95684.88;4999142;28;20119;-67
2022/10/16 10:45:42;;;;;;;5.32;3.30;;;;;;;24.93;34.22;95748.63;4992554;28;20054;-70
2022/10/16 10:48:26;;;;;;;6.55;3.10;;;;;;;25.07;33.03;95744.88;5019013;28;20033;-67
2022/10/16 10:51:10;;;;;;;5.43;3.05;;;;;;;24.93;33.61;95724.03;4988400;28;20026;-67
2022/10/16 10:53:44;;;;;;;4.15;3.00;;;;;;;24.97;33.17;95729.97;4988814;28;20505;-69
2022/10/16 10:56:27;;;;;;;5.80;2.95;;;;;;;24.36;32.74;95640.50;5002190;28;20049;-66
2022/10/16 10:59:01;;;;;;;5.30;3.95;;;;;;;25.02;32.73;95734.72;5006433;28;20041;-69
2022/10/16 11:01:45;;;;;;;5.90;3.05;;;;;;;25.03;31.08;95741.66;5030801;28;20076;-67
2022/10/16 11:04:28;;;;;;;3.03;2.30;;;;;;;25.18;31.93;95735.88;5003195;28;20060;-68
2022/10/16 11:06:59;;;;;;;5.00;3.00;;;;;;;25.17;35.58;95740.63;5036142;28;20143;-70
2022/10/16 11:09:39;;;;;;;4.63;2.95;;;;;;;25.32;35.63;95724.63;5010491;28;20041;-69
2022/10/16 11:12:26;;;;;;;4.80;2.90;;;;;;;25.35;35.43;95726.34;5009956;28;20037;-66
2022/10/16 11:15:14;;;;;;;4.18;3.13;;;;;;;25.49;35.90;95726.03;5038754;28;20033;-68
2022/10/16 11:17:49;;;;;;;5.43;3.08;;;;;;;25.46;35.98;95712.63;5004695;28;20140;-68
2022/10/16 11:20:22;;;;;;;3.60;2.78;;;;;;;25.22;35.72;95682.44;5008777;28;20084;-67
2022/10/16 11:22:52;;;;;;;3.97;2.80;;;;;;;24.75;35.19;95600.16;4990843;28;20063;-66
2022/10/16 11:25:27;;;;;;;4.78;3.15;;;;;;;25.42;35.61;95691.00;5004857;28;20043;-67
2022/10/16 11:28:10;;;;;;;4.07;2.72;;;;;;;25.63;35.29;95716.00;5024718;28;20041;-66
2022/10/16 11:30:45;;;;;;;4.28;2.80;;;;;;;25.64;35.23;95720.22;5022748;28;20055;-66
2022/10/16 11:33:55;;;;;;;5.60;3.33;;;;;;;25.56;35.56;95713.78;4986831;28;20044;-65
2022/10/16 11:36:25;;;;;;;;;;;;;;;25.62;35.49;95709.03;4975914;28;20502;-65
2022/10/16 11:38:56;;;;;;;4.82;2.95;;;;;;;25.59;35.33;95704.56;5006482;28;19940;-59
2022/10/16 11:41:42;;;;;;;4.00;2.97;;;;;;;25.29;35.25;95665.50;5022586;28;20540;-59
2022/10/16 11:44:19;;;;;;;5.30;3.00;;;;;;;25.21;35.33;95652.88;5004708;28;20137;-61
2022/10/16 11:47:10;;;;;;;4.47;2.90;;;;;;;25.35;34.88;95679.84;5004965;28;20596;-60